createdAt,value
2023-05-22T00:01:12.149Z,20.15
2023-05-22T00:03:40.750Z,20.09
2023-05-22T00:06:10.091Z,20.03
2023-05-22T00:08:37.311Z,19.97
2023-05-22T00:11:04.481Z,19.92
2023-05-22T00:13:31.703Z,19.87
2023-05-22T00:15:58.704Z,19.82
2023-05-22T00:18:27.028Z,19.76
2023-05-22T00:20:54.230Z,19.70
2023-05-22T00:23:22.010Z,19.65
2023-05-22T00:25:50.666Z,19.58
2023-05-22T00:28:17.791Z,19.53
2023-05-22T00:30:45.944Z,19.49
2023-05-22T00:33:12.947Z,19.42
2023-05-22T00:35:39.932Z,19.37
2023-05-22T00:38:08.789Z,19.31
2023-05-22T00:40:36.141Z,19.25
2023-05-22T00:43:08.219Z,19.21
2023-05-22T00:45:35.309Z,19.15
2023-05-22T00:48:02.388Z,19.09
2023-05-22T00:50:29.529Z,19.04
2023-05-22T00:52:56.724Z,18.98
2023-05-22T00:55:23.736Z,18.93
2023-05-22T00:57:51.868Z,18.88
2023-05-22T01:00:19.477Z,18.83
2023-05-22T01:02:46.614Z,18.78
2023-05-22T01:05:17.992Z,18.74
2023-05-22T01:07:46.344Z,18.68
2023-05-22T01:10:13.454Z,18.62
2023-05-22T01:13:01.865Z,18.57
2023-05-22T01:15:56.600Z,18.52
2023-05-22T01:18:41.717Z,18.47
2023-05-22T01:21:30.061Z,18.43
2023-05-22T01:24:47.069Z,18.37
2023-05-22T01:27:54.200Z,18.32
2023-05-22T01:30:47.237Z,18.26
2023-05-22T01:33:17.595Z,18.20
2023-05-22T01:35:51.717Z,18.15
2023-05-22T01:38:19.760Z,18.10
2023-05-22T01:40:47.639Z,18.06
2023-05-22T01:43:16.445Z,18.02
2023-05-22T01:45:43.729Z,17.97
2023-05-22T01:48:12.027Z,17.94
2023-05-22T01:50:40.821Z,17.90
2023-05-22T01:53:26.488Z,17.86
2023-05-22T01:56:06.378Z,17.83
2023-05-22T01:58:50.504Z,17.80
2023-05-22T02:01:22.508Z,17.80
2023-05-22T02:04:10.026Z,17.75
2023-05-22T02:07:01.068Z,17.72
2023-05-22T02:09:33.190Z,17.68
2023-05-22T02:12:01.127Z,17.66
2023-05-22T02:14:30.197Z,17.63
2023-05-22T02:16:58.022Z,17.59
2023-05-22T02:19:27.016Z,17.57
2023-05-22T02:21:54.211Z,17.55
2023-05-22T02:24:23.547Z,17.52
2023-05-22T02:26:51.911Z,17.49
2023-05-22T02:29:19.157Z,17.46
2023-05-22T02:31:46.381Z,17.44
2023-05-22T02:34:13.476Z,17.41
2023-05-22T02:36:41.278Z,17.39
2023-05-22T02:39:08.810Z,17.37
2023-05-22T02:41:35.805Z,17.35
2023-05-22T02:44:03.187Z,17.33
2023-05-22T02:46:30.391Z,17.31
2023-05-22T02:48:57.427Z,17.29
2023-05-22T02:51:24.431Z,17.27
2023-05-22T02:53:52.127Z,17.24
2023-05-22T02:56:20.894Z,17.22
2023-05-22T02:58:48.281Z,17.21
2023-05-22T03:01:15.474Z,17.17
2023-05-22T03:03:43.630Z,17.15
2023-05-22T03:06:10.960Z,17.12
2023-05-22T03:08:41.531Z,17.09
2023-05-22T03:11:09.221Z,17.07
2023-05-22T03:13:36.605Z,17.04
2023-05-22T03:16:03.927Z,17.00
2023-05-22T03:18:31.222Z,16.95
2023-05-22T03:20:58.246Z,16.91
2023-05-22T03:23:25.397Z,16.87
2023-05-22T03:25:53.131Z,16.83
2023-05-22T03:28:21.299Z,16.80
2023-05-22T03:30:49.426Z,16.76
2023-05-22T03:33:21.467Z,16.73
2023-05-22T03:35:50.090Z,16.72
2023-05-22T03:38:17.097Z,16.72
2023-05-22T03:40:44.298Z,16.74
2023-05-22T03:43:11.349Z,16.74
2023-05-22T03:45:39.288Z,16.75
2023-05-22T03:48:06.448Z,16.77
2023-05-22T03:50:33.593Z,16.80
2023-05-22T03:53:01.236Z,16.84
2023-05-22T03:55:30.741Z,16.85
2023-05-22T03:57:57.780Z,16.86
2023-05-22T04:00:26.786Z,16.88
2023-05-22T04:02:54.708Z,16.89
2023-05-22T04:05:24.413Z,16.89
2023-05-22T04:07:51.537Z,16.92
2023-05-22T04:10:20.922Z,16.95
2023-05-22T04:12:47.921Z,16.95
2023-05-22T04:15:14.988Z,16.97
2023-05-22T04:17:42.132Z,16.99
2023-05-22T04:20:09.825Z,17.00
2023-05-22T04:22:37.135Z,17.03
2023-05-22T04:25:04.419Z,17.06
2023-05-22T04:27:33.166Z,17.08
2023-05-22T04:30:03.598Z,17.12
2023-05-22T04:32:31.832Z,17.14
2023-05-22T04:35:00.398Z,17.16
2023-05-22T04:37:28.708Z,17.17
2023-05-22T04:39:58.200Z,17.17
2023-05-22T04:42:25.319Z,17.16
2023-05-22T04:44:57.965Z,17.16
2023-05-22T04:47:24.991Z,17.15
2023-05-22T04:49:52.036Z,17.16
2023-05-22T04:52:19.092Z,17.16
2023-05-22T04:55:06.695Z,17.18
2023-05-22T04:57:52.779Z,17.19
2023-05-22T05:00:38.907Z,17.20
2023-05-22T05:03:08.161Z,17.22
2023-05-22T05:05:35.619Z,17.24
2023-05-22T05:08:02.960Z,17.26
2023-05-22T05:10:29.998Z,17.27
2023-05-22T05:12:57.051Z,17.30
2023-05-22T05:15:24.097Z,17.33
2023-05-22T05:17:51.461Z,17.37
2023-05-22T05:20:18.737Z,17.41
2023-05-22T05:22:46.326Z,17.47
2023-05-22T05:25:14.611Z,17.52
2023-05-22T05:27:41.729Z,17.58
2023-05-22T05:30:10.659Z,17.63
2023-05-22T05:32:48.029Z,17.70
2023-05-22T05:35:31.578Z,17.76
2023-05-22T05:38:04.389Z,17.81
2023-05-22T05:40:33.690Z,17.87
2023-05-22T05:43:00.791Z,17.91
2023-05-22T05:45:29.588Z,17.97
2023-05-22T05:47:57.222Z,18.00
2023-05-22T05:50:24.452Z,18.03
2023-05-22T05:52:51.556Z,18.06
2023-05-22T05:55:19.833Z,18.09
2023-05-22T05:57:48.257Z,18.13
2023-05-22T06:00:22.580Z,18.18
2023-05-22T06:02:51.426Z,18.23
2023-05-22T06:05:37.117Z,18.30
2023-05-22T06:08:26.870Z,18.37
2023-05-22T06:10:54.051Z,18.42
2023-05-22T06:13:33.227Z,18.47
2023-05-22T06:16:04.096Z,18.52
2023-05-22T06:18:32.945Z,18.58
2023-05-22T06:21:00.580Z,18.61
2023-05-22T06:23:27.561Z,18.66
2023-05-22T06:25:55.869Z,18.71
2023-05-22T06:28:23.588Z,18.78
2023-05-22T06:30:51.036Z,18.84
2023-05-22T06:33:21.145Z,18.90
2023-05-22T06:35:48.412Z,18.97
2023-05-22T06:38:16.493Z,19.05
2023-05-22T06:40:44.281Z,19.12
2023-05-22T06:43:18.621Z,19.21
2023-05-22T06:45:51.193Z,19.29
2023-05-22T06:48:24.276Z,19.38
2023-05-22T06:51:01.174Z,19.46
2023-05-22T06:53:28.917Z,19.53
2023-05-22T06:55:57.047Z,19.60
2023-05-22T06:58:34.896Z,19.70
2023-05-22T07:01:05.099Z,19.77
2023-05-22T07:03:39.761Z,19.82
2023-05-22T07:06:33.585Z,19.91
2023-05-22T07:09:02.824Z,19.96
2023-05-22T07:11:29.905Z,20.02
2023-05-22T07:13:56.920Z,20.09
2023-05-22T07:16:25.607Z,20.17
2023-05-22T07:18:53.052Z,20.26
2023-05-22T07:21:23.640Z,20.32
2023-05-22T07:23:52.648Z,20.42
2023-05-22T07:26:19.727Z,20.49
2023-05-22T07:28:55.148Z,20.58
2023-05-22T07:31:22.222Z,20.67
2023-05-22T07:33:49.901Z,20.76
2023-05-22T07:36:18.908Z,20.84
2023-05-22T07:38:46.565Z,20.94
2023-05-22T07:41:13.958Z,21.04
2023-05-22T07:43:40.997Z,21.14
2023-05-22T07:46:11.474Z,21.26
2023-05-22T07:48:48.126Z,21.35
2023-05-22T07:51:16.736Z,21.44
2023-05-22T07:53:45.099Z,21.54
2023-05-22T07:56:12.104Z,21.65
2023-05-22T07:58:40.064Z,21.76
2023-05-22T08:01:09.383Z,21.90
2023-05-22T08:03:36.832Z,22.04
2023-05-22T08:06:04.459Z,22.15
2023-05-22T08:08:32.695Z,22.23
2023-05-22T08:11:04.288Z,22.34
2023-05-22T08:13:32.206Z,22.43
2023-05-22T08:16:00.459Z,22.51
2023-05-22T08:18:29.261Z,22.59
2023-05-22T08:20:56.861Z,22.68
2023-05-22T08:23:24.066Z,22.78
2023-05-22T08:25:51.143Z,22.86
2023-05-22T08:28:18.327Z,22.95
2023-05-22T08:30:45.554Z,23.01
2023-05-22T08:33:12.634Z,23.08
2023-05-22T08:35:39.752Z,23.18
2023-05-22T08:38:07.265Z,23.27
2023-05-22T08:40:39.383Z,23.36
2023-05-22T08:43:06.910Z,23.45
2023-05-22T08:45:34.664Z,23.54
2023-05-22T08:48:06.334Z,23.64
2023-05-22T08:50:40.656Z,23.74
2023-05-22T08:53:11.219Z,23.88
2023-05-22T08:55:38.599Z,24.04
2023-05-22T08:58:06.057Z,24.20
2023-05-22T09:00:33.586Z,24.32
2023-05-22T09:03:00.751Z,24.46
2023-05-22T09:05:27.891Z,24.57
2023-05-22T09:08:02.648Z,24.70
2023-05-22T09:10:36.000Z,24.88
2023-05-22T09:13:11.529Z,25.04
2023-05-22T09:15:38.593Z,25.24
2023-05-22T09:18:06.488Z,25.39
2023-05-22T09:20:38.955Z,25.63
2023-05-22T09:23:17.541Z,25.89
2023-05-22T09:25:45.491Z,26.13
2023-05-22T09:28:13.241Z,26.32
2023-05-22T09:30:42.469Z,26.46
2023-05-22T09:33:14.124Z,26.63
2023-05-22T09:35:42.094Z,26.72
2023-05-22T09:38:10.308Z,26.82
2023-05-22T09:40:43.121Z,26.96
2023-05-22T09:43:11.182Z,27.06
2023-05-22T09:45:39.242Z,27.10
2023-05-22T09:48:08.593Z,27.27
2023-05-22T09:50:36.960Z,27.40
2023-05-22T09:53:04.975Z,27.39
2023-05-22T09:55:33.617Z,27.46
2023-05-22T09:58:05.294Z,27.49
2023-05-22T10:00:35.125Z,27.43
2023-05-22T10:03:17.968Z,27.52
2023-05-22T10:05:52.386Z,27.65
2023-05-22T10:08:32.729Z,27.86
2023-05-22T10:11:00.021Z,28.08
2023-05-22T10:13:27.842Z,28.34
2023-05-22T10:15:55.015Z,28.56
2023-05-22T10:18:23.087Z,28.75
2023-05-22T10:20:50.307Z,28.90
2023-05-22T10:23:18.630Z,29.01
2023-05-22T10:25:46.515Z,29.01
2023-05-22T10:28:24.295Z,29.14
2023-05-22T10:31:07.869Z,29.25
2023-05-22T10:34:02.770Z,29.39
2023-05-22T10:37:17.289Z,29.56
2023-05-22T10:40:14.633Z,29.77
2023-05-22T10:42:43.247Z,29.98
2023-05-22T10:45:11.267Z,30.11
2023-05-22T10:47:38.501Z,30.32
2023-05-22T10:50:11.798Z,30.56
2023-05-22T10:52:39.935Z,30.83
2023-05-22T10:55:11.271Z,31.18
2023-05-22T10:57:39.861Z,31.56
2023-05-22T11:00:19.215Z,31.99
2023-05-22T11:02:49.984Z,32.46
2023-05-22T11:05:36.486Z,32.90
2023-05-22T11:08:26.305Z,33.44
2023-05-22T11:10:59.090Z,33.94
2023-05-22T11:13:29.272Z,34.35
2023-05-22T11:15:57.682Z,34.73
2023-05-22T11:18:29.013Z,34.97
2023-05-22T11:20:56.092Z,35.25
2023-05-22T11:23:25.741Z,35.56
2023-05-22T11:25:53.060Z,35.88
2023-05-22T11:28:20.422Z,36.25
2023-05-22T11:30:47.866Z,36.66
2023-05-22T11:33:15.170Z,37.06
2023-05-22T11:35:44.497Z,37.42
2023-05-22T11:38:12.442Z,37.66
2023-05-22T11:40:39.825Z,37.97
2023-05-22T11:43:07.167Z,38.12
2023-05-22T11:45:37.704Z,38.39
2023-05-22T11:48:04.767Z,38.65
2023-05-22T11:50:41.566Z,38.89
2023-05-22T11:53:09.785Z,39.15
2023-05-22T11:55:36.784Z,39.27
2023-05-22T11:58:03.818Z,39.48
2023-05-22T12:00:31.668Z,39.67
2023-05-22T12:02:59.134Z,39.89
2023-05-22T12:05:26.353Z,40.06
2023-05-22T12:07:53.426Z,40.19
2023-05-22T12:10:20.545Z,40.37
2023-05-22T12:12:48.216Z,40.50
2023-05-22T12:15:20.417Z,40.43
2023-05-22T12:17:47.599Z,40.35
2023-05-22T12:20:14.703Z,40.51
2023-05-22T12:22:43.425Z,40.57
2023-05-22T12:25:16.414Z,40.52
2023-05-22T12:27:45.438Z,40.46
2023-05-22T12:30:14.488Z,40.41
2023-05-22T12:32:47.089Z,40.27
2023-05-22T12:35:18.360Z,40.23
2023-05-22T12:37:52.447Z,40.24
2023-05-22T12:40:19.744Z,40.36
2023-05-22T12:42:48.908Z,40.48
2023-05-22T12:45:17.693Z,40.60
2023-05-22T12:47:44.834Z,40.68
2023-05-22T12:50:12.060Z,40.73
2023-05-22T12:52:39.109Z,40.75
2023-05-22T12:55:07.136Z,40.79
2023-05-22T12:57:34.093Z,40.81
2023-05-22T13:00:01.071Z,40.83
2023-05-22T13:02:28.102Z,40.95
2023-05-22T13:04:55.224Z,41.03
2023-05-22T13:07:22.589Z,41.19
2023-05-22T13:09:49.717Z,41.29
2023-05-22T13:12:16.889Z,41.38
2023-05-22T13:14:43.994Z,41.40
2023-05-22T13:17:11.653Z,41.52
2023-05-22T13:19:38.766Z,41.57
2023-05-22T13:22:07.484Z,41.66
2023-05-22T13:24:34.512Z,41.69
2023-05-22T13:27:01.802Z,41.68
2023-05-22T13:29:28.826Z,41.73
2023-05-22T13:31:55.962Z,41.79
2023-05-22T13:34:23.160Z,41.78
2023-05-22T13:36:50.592Z,41.81
2023-05-22T13:39:17.625Z,41.75
2023-05-22T13:41:45.104Z,41.74
2023-05-22T13:44:12.186Z,41.68
2023-05-22T13:46:40.879Z,41.46
2023-05-22T13:49:08.226Z,41.38
2023-05-22T13:51:35.611Z,41.32
2023-05-22T13:54:03.949Z,41.28
2023-05-22T13:56:31.268Z,41.24
2023-05-22T13:58:58.316Z,41.18
2023-05-22T14:01:25.409Z,41.14
2023-05-22T14:03:52.516Z,41.09
2023-05-22T14:06:19.581Z,41.10
2023-05-22T14:08:46.609Z,41.05
2023-05-22T14:11:13.621Z,41.08
2023-05-22T14:13:40.670Z,41.11
2023-05-22T14:16:07.652Z,41.13
2023-05-22T14:18:34.759Z,40.98
2023-05-22T14:21:04.009Z,40.70
2023-05-22T14:23:31.817Z,40.39
2023-05-22T14:25:58.850Z,39.80
2023-05-22T14:28:26.013Z,39.41
2023-05-22T14:30:53.119Z,39.19
2023-05-22T14:33:20.136Z,39.14
2023-05-22T14:35:48.334Z,39.15
2023-05-22T14:38:15.485Z,39.31
2023-05-22T14:40:42.774Z,39.47
2023-05-22T14:43:09.768Z,39.64
2023-05-22T14:45:36.786Z,39.85
2023-05-22T14:48:04.637Z,40.11
2023-05-22T14:50:31.675Z,40.35
2023-05-22T14:52:58.909Z,40.63
2023-05-22T14:55:28.026Z,40.84
2023-05-22T14:57:55.676Z,41.11
2023-05-22T15:00:22.756Z,41.34
2023-05-22T15:02:49.791Z,41.56
2023-05-22T15:05:16.931Z,41.79
2023-05-22T15:07:46.054Z,41.88
2023-05-22T15:10:14.613Z,41.98
2023-05-22T15:12:41.643Z,42.10
2023-05-22T15:15:09.162Z,42.23
2023-05-22T15:17:36.286Z,42.33
2023-05-22T15:20:05.367Z,42.41
2023-05-22T15:22:32.389Z,42.30
2023-05-22T15:25:09.559Z,42.25
2023-05-22T15:27:38.862Z,41.92
2023-05-22T15:30:09.458Z,41.42
2023-05-22T15:32:37.487Z,40.80
2023-05-22T15:35:06.134Z,40.42
2023-05-22T15:37:36.488Z,39.92
2023-05-22T15:40:07.124Z,39.50
2023-05-22T15:42:34.239Z,39.06
2023-05-22T15:45:01.334Z,38.66
2023-05-22T15:47:29.771Z,38.21
2023-05-22T15:49:56.796Z,37.92
2023-05-22T15:52:24.532Z,37.63
2023-05-22T15:54:51.673Z,37.41
2023-05-22T15:57:18.863Z,37.24
2023-05-22T15:59:47.289Z,37.02
2023-05-22T16:02:14.721Z,36.84
2023-05-22T16:04:41.832Z,36.69
2023-05-22T16:07:08.882Z,36.54
2023-05-22T16:09:36.304Z,36.47
2023-05-22T16:12:04.087Z,36.38
2023-05-22T16:14:31.542Z,36.30
2023-05-22T16:16:58.652Z,36.25
2023-05-22T16:19:28.055Z,36.19
2023-05-22T16:21:55.421Z,36.12
2023-05-22T16:24:22.484Z,36.01
2023-05-22T16:26:49.488Z,35.91
2023-05-22T16:29:22.226Z,35.78
2023-05-22T16:31:49.306Z,35.68
2023-05-22T16:34:16.377Z,35.47
2023-05-22T16:36:43.886Z,35.23
2023-05-22T16:39:11.182Z,34.91
2023-05-22T16:41:38.215Z,34.65
2023-05-22T16:44:05.474Z,34.35
2023-05-22T16:46:32.549Z,33.88
2023-05-22T16:48:59.567Z,33.53
2023-05-22T16:51:26.543Z,33.08
2023-05-22T16:53:53.567Z,32.79
2023-05-22T16:56:21.012Z,32.47
2023-05-22T16:58:48.061Z,32.16
2023-05-22T17:01:15.332Z,31.91
2023-05-22T17:03:42.504Z,31.68
2023-05-22T17:06:09.638Z,31.47
2023-05-22T17:08:36.678Z,31.20
2023-05-22T17:11:07.760Z,30.93
2023-05-22T17:13:34.802Z,30.66
2023-05-22T17:16:01.824Z,30.44
2023-05-22T17:18:28.842Z,30.15
2023-05-22T17:20:55.878Z,29.78
2023-05-22T17:23:22.958Z,29.42
2023-05-22T17:25:50.645Z,29.01
2023-05-22T17:28:17.836Z,28.79
2023-05-22T17:30:46.002Z,28.53
2023-05-22T17:33:13.898Z,28.26
2023-05-22T17:35:41.696Z,28.03
2023-05-22T17:38:08.807Z,27.82
2023-05-22T17:40:44.676Z,27.61
2023-05-22T17:43:14.276Z,27.49
2023-05-22T17:45:41.819Z,27.36
2023-05-22T17:48:09.153Z,27.22
2023-05-22T17:50:36.295Z,27.10
2023-05-22T17:53:03.383Z,26.98
2023-05-22T17:55:30.550Z,26.86
2023-05-22T17:57:58.641Z,26.75
2023-05-22T18:00:25.725Z,26.68
2023-05-22T18:02:52.964Z,26.57
2023-05-22T18:05:20.132Z,26.46
2023-05-22T18:07:48.182Z,26.36
2023-05-22T18:10:15.324Z,26.26
2023-05-22T18:12:45.016Z,26.17
2023-05-22T18:15:12.289Z,26.09
2023-05-22T18:17:41.121Z,26.02
2023-05-22T18:20:11.865Z,25.96
2023-05-22T18:22:39.887Z,25.90
2023-05-22T18:25:07.843Z,25.85
2023-05-22T18:27:36.219Z,25.76
2023-05-22T18:30:05.230Z,25.69
2023-05-22T18:32:34.798Z,25.64
2023-05-22T18:35:03.704Z,25.58
2023-05-22T18:37:30.872Z,25.51
2023-05-22T18:39:58.053Z,25.43
2023-05-22T18:42:25.256Z,25.37
2023-05-22T18:44:52.278Z,25.30
2023-05-22T18:47:19.466Z,25.21
2023-05-22T18:49:46.495Z,25.13
2023-05-22T18:52:13.553Z,25.07
2023-05-22T18:54:40.638Z,25.00
2023-05-22T18:57:07.868Z,24.95
2023-05-22T18:59:35.021Z,24.89
2023-05-22T19:02:02.103Z,24.84
2023-05-22T19:04:29.137Z,24.78
2023-05-22T19:06:56.398Z,24.69
2023-05-22T19:09:24.085Z,24.61
2023-05-22T19:11:51.240Z,24.52
2023-05-22T19:14:18.424Z,24.42
2023-05-22T19:16:45.603Z,24.34
2023-05-22T19:19:12.815Z,24.26
2023-05-22T19:21:39.850Z,24.18
2023-05-22T19:24:07.415Z,24.12
2023-05-22T19:26:34.465Z,24.04
2023-05-22T19:29:01.514Z,23.96
2023-05-22T19:31:29.641Z,23.89
2023-05-22T19:33:56.933Z,23.82
2023-05-22T19:36:23.916Z,23.76
2023-05-22T19:38:53.234Z,23.69
2023-05-22T19:41:20.550Z,23.64
2023-05-22T19:43:47.577Z,23.59
2023-05-22T19:46:14.717Z,23.54
2023-05-22T19:48:41.750Z,23.48
2023-05-22T19:51:08.813Z,23.45
2023-05-22T19:53:36.483Z,23.41
2023-05-22T19:56:03.561Z,23.36
2023-05-22T19:58:30.685Z,23.32
2023-05-22T20:00:57.755Z,23.27
2023-05-22T20:03:26.187Z,23.22
2023-05-22T20:05:53.807Z,23.17
2023-05-22T20:08:25.804Z,23.10
2023-05-22T20:10:53.013Z,23.03
2023-05-22T20:13:20.132Z,22.97
2023-05-22T20:15:47.839Z,22.90
2023-05-22T20:18:15.076Z,22.84
2023-05-22T20:20:42.204Z,22.77
2023-05-22T20:23:09.252Z,22.73
2023-05-22T20:25:37.464Z,22.68
2023-05-22T20:28:04.980Z,22.64
2023-05-22T20:30:32.427Z,22.60
2023-05-22T20:32:59.475Z,22.54
2023-05-22T20:35:26.849Z,22.50
2023-05-22T20:37:53.884Z,22.46
2023-05-22T20:40:21.722Z,22.40
2023-05-22T20:42:49.103Z,22.34
2023-05-22T20:45:16.449Z,22.30
2023-05-22T20:47:43.891Z,22.23
2023-05-22T20:50:11.522Z,22.16
2023-05-22T20:52:38.555Z,22.11
2023-05-22T20:55:06.726Z,22.02
2023-05-22T20:57:34.520Z,21.96
2023-05-22T21:00:01.977Z,21.90
2023-05-22T21:02:30.961Z,21.84
2023-05-22T21:04:57.975Z,21.79
2023-05-22T21:07:24.971Z,21.74
2023-05-22T21:09:51.988Z,21.71
2023-05-22T21:12:18.997Z,21.68
2023-05-22T21:14:46.979Z,21.64
2023-05-22T21:17:14.031Z,21.60
2023-05-22T21:19:41.097Z,21.57
2023-05-22T21:22:08.619Z,21.51
2023-05-22T21:24:35.726Z,21.48
2023-05-22T21:27:02.847Z,21.44
2023-05-22T21:29:29.836Z,21.39
2023-05-22T21:31:56.863Z,21.36
2023-05-22T21:34:24.033Z,21.34
2023-05-22T21:36:51.075Z,21.31
2023-05-22T21:39:18.140Z,21.28
2023-05-22T21:41:45.722Z,21.26
2023-05-22T21:44:13.451Z,21.23
2023-05-22T21:46:40.520Z,21.20
2023-05-22T21:49:09.526Z,21.18
2023-05-22T21:51:37.515Z,21.15
2023-05-22T21:54:04.639Z,21.13
2023-05-22T21:56:31.620Z,21.11
2023-05-22T21:58:58.619Z,21.08
2023-05-22T22:01:25.792Z,21.04
2023-05-22T22:03:53.079Z,21.02
2023-05-22T22:06:20.089Z,20.99
2023-05-22T22:08:50.854Z,20.95
2023-05-22T22:11:17.949Z,20.92
2023-05-22T22:13:44.952Z,20.89
2023-05-22T22:16:12.048Z,20.86
2023-05-22T22:18:40.587Z,20.83
2023-05-22T22:21:07.592Z,20.81
2023-05-22T22:23:34.601Z,20.78
2023-05-22T22:26:01.696Z,20.76
2023-05-22T22:28:29.030Z,20.75
2023-05-22T22:30:56.090Z,20.72
2023-05-22T22:33:23.102Z,20.69
2023-05-22T22:35:51.271Z,20.67
2023-05-22T22:38:18.592Z,20.66
2023-05-22T22:40:45.654Z,20.62
2023-05-22T22:43:12.688Z,20.58
2023-05-22T22:45:40.232Z,20.55
2023-05-22T22:48:07.686Z,20.51
2023-05-22T22:50:34.810Z,20.48
2023-05-22T22:53:01.869Z,20.46
2023-05-22T22:55:29.076Z,20.43
2023-05-22T22:57:56.319Z,20.39
2023-05-22T23:00:23.622Z,20.36
2023-05-22T23:02:51.056Z,20.32
2023-05-22T23:05:21.210Z,20.30
2023-05-22T23:07:48.613Z,20.27
2023-05-22T23:10:15.850Z,20.23
2023-05-22T23:12:42.960Z,20.20
2023-05-22T23:15:12.993Z,20.17
2023-05-22T23:17:41.258Z,20.13
2023-05-22T23:20:08.993Z,20.09
2023-05-22T23:22:36.042Z,20.06
2023-05-22T23:25:03.381Z,20.02
2023-05-22T23:27:30.464Z,20.00
2023-05-22T23:29:58.123Z,19.96
2023-05-22T23:32:25.210Z,19.93
2023-05-22T23:34:52.238Z,19.91
2023-05-22T23:37:19.230Z,19.90
2023-05-22T23:39:46.208Z,19.87
2023-05-22T23:42:13.231Z,19.84
2023-05-22T23:44:40.225Z,19.82
2023-05-22T23:47:08.037Z,19.80
2023-05-22T23:49:35.270Z,19.78
2023-05-22T23:52:02.257Z,19.76
2023-05-22T23:54:29.248Z,19.74
2023-05-22T23:56:56.252Z,19.73
2023-05-22T23:59:23.251Z,19.71
